Time;durP1;ratioP1;P1;durP2;ratioP2;P2;SDS_P1;SDS_P2;PMS_P1;PMS_P2;Temp;Humidity;BMP_temperature;BMP_pressure;BME280_temperature;BME280_humidity;BME280_pressure;Samples;Min_cycle;Max_cycle;Signal;HPM_P1;HPM_P2
2023/09/28 00:03:22;;;;;;;;;;;20.20;99.90;;;;;;8407255;28;19972;-71
2023/09/28 00:07:23;;;;;;;;;;;20.20;99.90;;;;;;8414050;28;19924;-71
2023/09/28 00:11:25;;;;;;;;;;;20.10;99.90;;;;;;8402389;28;20364;-71
2023/09/28 00:15:27;;;;;;;;;;;20.20;99.90;;;;;;8398439;28;19956;-71
2023/09/28 00:19:29;;;;;;;;;;;20.10;99.90;;;;;;8405338;28;20106;-71
2023/09/28 00:23:32;;;;;;;;;;;20.10;99.90;;;;;;8404877;28;19997;-71
2023/09/28 00:27:33;;;;;;;;;;;20.10;99.90;;;;;;8404610;28;19925;-71
2023/09/28 00:31:35;;;;;;;;;;;20.00;99.90;;;;;;8404637;28;19932;-71
2023/09/28 00:35:37;;;;;;;;;;;20.00;99.90;;;;;;8401911;28;19925;-71
2023/09/28 00:39:38;;;;;;;;;;;20.00;99.90;;;;;;8410687;28;20333;-71
2023/09/28 00:43:40;;;;;;;;;;;20.00;99.90;;;;;;8403085;28;19924;-71
2023/09/28 00:47:45;;;;;;;;;;;20.00;99.90;;;;;;8406671;28;19925;-71
2023/09/28 00:51:47;;;;;;;;;;;20.00;99.90;;;;;;8402804;28;19974;-71
2023/09/28 00:55:49;;;;;;;;;;;20.00;99.90;;;;;;8382672;28;19928;-71
2023/09/28 00:59:51;;;;;;;;;;;20.00;99.90;;;;;;8405081;28;20287;-71
2023/09/28 01:03:55;;;;;;;;;;;19.90;99.90;;;;;;8404921;28;20191;-71
2023/09/28 01:08:12;;;;;;;;;;;19.90;99.90;;;;;;8386696;28;19964;-71
2023/09/28 01:12:14;;;;;;;;;;;19.90;99.90;;;;;;8377096;28;19924;-71
2023/09/28 01:21:23;;;;;;;;;;;19.80;99.90;;;;;;8399224;28;20379;-71
2023/09/28 01:25:26;;;;;;;;;;;19.70;99.90;;;;;;8399921;28;19932;-71
2023/09/28 01:29:27;;;;;;;;;;;19.60;99.90;;;;;;8401963;28;20368;-71
2023/09/28 01:33:30;;;;;;;;;;;19.50;99.90;;;;;;8404279;28;19925;-71
2023/09/28 01:37:52;;;;;;;;;;;19.50;99.90;;;;;;8412344;28;19938;-71
2023/09/28 01:41:53;;;;;;;;;;;19.40;99.90;;;;;;8409501;28;19932;-71
2023/09/28 01:45:55;;;;;;;;;;;19.40;99.90;;;;;;8411226;28;19971;-71
2023/09/28 01:49:58;;;;;;;;;;;19.30;99.90;;;;;;8400117;28;19928;-71
2023/09/28 01:54:00;;;;;;;;;;;19.20;99.90;;;;;;8393992;28;19925;-71
2023/09/28 01:58:03;;;;;;;;;;;19.10;99.90;;;;;;8415336;28;19924;-71
2023/09/28 02:02:05;;;;;;;;;;;19.10;99.90;;;;;;8397162;28;20279;-71
2023/09/28 02:06:07;;;;;;;;;;;19.00;99.90;;;;;;8399224;28;19976;-71
2023/09/28 02:10:10;;;;;;;;;;;19.00;99.90;;;;;;8398671;28;20314;-71
2023/09/28 02:14:12;;;;;;;;;;;19.00;99.90;;;;;;8409610;28;20203;-71
2023/09/28 02:18:14;;;;;;;;;;;18.90;99.90;;;;;;8404766;28;19925;-71
2023/09/28 02:22:16;;;;;;;;;;;18.90;99.90;;;;;;8408813;28;19924;-71
2023/09/28 02:26:18;;;;;;;;;;;18.90;99.90;;;;;;8409803;28;19931;-71
2023/09/28 02:30:22;;;;;;;;;;;18.90;99.90;;;;;;8395404;28;19927;-71
2023/09/28 02:34:24;;;;;;;;;;;18.90;99.90;;;;;;8404323;28;19924;-71
2023/09/28 02:38:27;;;;;;;;;;;18.80;99.90;;;;;;8392382;28;19928;-71
2023/09/28 02:42:28;;;;;;;;;;;18.70;99.90;;;;;;8397671;28;19924;-71
2023/09/28 02:46:31;;;;;;;;;;;18.70;99.90;;;;;;8403374;28;19924;-71
2023/09/28 02:50:33;;;;;;;;;;;18.60;99.90;;;;;;8390894;28;19928;-71
2023/09/28 02:54:35;;;;;;;;;;;18.60;99.90;;;;;;8382537;28;20284;-71
2023/09/28 02:58:37;;;;;;;;;;;18.60;99.90;;;;;;8404920;28;19924;-71
2023/09/28 03:02:38;;;;;;;;;;;18.60;99.90;;;;;;8397358;28;19924;-71
2023/09/28 03:06:40;;;;;;;;;;;18.60;99.90;;;;;;8404367;28;19967;-71
2023/09/28 03:10:42;;;;;;;;;;;18.60;99.90;;;;;;8399328;28;20416;-71
2023/09/28 03:14:44;;;;;;;;;;;18.60;99.90;;;;;;8407611;28;19971;-71
2023/09/28 03:18:46;;;;;;;;;;;18.60;99.90;;;;;;8405272;28;19931;-71
2023/09/28 03:22:49;;;;;;;;;;;18.60;99.90;;;;;;8411505;28;19933;-71
2023/09/28 03:26:51;;;;;;;;;;;18.60;99.90;;;;;;8405914;28;20384;-71
2023/09/28 03:31:08;;;;;;;;;;;18.50;99.90;;;;;;8414441;28;19932;-71
2023/09/28 03:35:11;;;;;;;;;;;18.50;99.90;;;;;;8406836;28;19943;-72
2023/09/28 03:39:13;;;;;;;;;;;18.40;99.90;;;;;;8408525;28;19928;-71
2023/09/28 03:43:15;;;;;;;;;;;18.40;99.90;;;;;;8424366;28;19932;-71
2023/09/28 03:47:17;;;;;;;;;;;18.30;99.90;;;;;;8427146;28;19924;-71
2023/09/28 03:51:19;;;;;;;;;;;18.20;99.90;;;;;;8420277;28;19928;-71
2023/09/28 03:55:23;;;;;;;;;;;18.00;99.90;;;;;;8421936;28;19925;-71
2023/09/28 03:59:25;;;;;;;;;;;18.00;99.90;;;;;;8427251;28;20015;-71
2023/09/28 04:03:27;;;;;;;;;;;17.90;99.90;;;;;;8394421;28;19954;-71
2023/09/28 04:07:29;;;;;;;;;;;17.90;99.90;;;;;;8414113;28;19924;-71
2023/09/28 04:11:31;;;;;;;;;;;17.80;99.90;;;;;;8412551;28;19931;-71
2023/09/28 04:15:33;;;;;;;;;;;17.80;99.90;;;;;;8414842;28;19932;-71
2023/09/28 04:19:34;;;;;;;;;;;17.80;99.90;;;;;;8394622;28;19925;-71
2023/09/28 04:23:37;;;;;;;;;;;17.80;99.90;;;;;;8418708;28;19924;-71
2023/09/28 04:27:38;;;;;;;;;;;17.80;99.90;;;;;;8415348;28;20255;-71
2023/09/28 04:31:40;;;;;;;;;;;17.80;99.90;;;;;;8386733;28;19928;-71
2023/09/28 04:35:42;;;;;;;;;;;17.80;99.90;;;;;;8411953;28;20036;-71
2023/09/28 04:39:44;;;;;;;;;;;17.80;99.90;;;;;;8383495;28;19939;-71
2023/09/28 04:43:46;;;;;;;;;;;17.80;99.90;;;;;;8403949;28;19944;-71
2023/09/28 04:47:47;;;;;;;;;;;17.70;99.90;;;;;;8405814;28;20306;-71
2023/09/28 04:51:49;;;;;;;;;;;17.70;99.90;;;;;;8404768;28;19924;-71
2023/09/28 04:55:51;;;;;;;;;;;17.60;99.90;;;;;;8421215;28;19956;-71
2023/09/28 04:59:53;;;;;;;;;;;17.60;99.90;;;;;;8399046;28;20353;-71
2023/09/28 05:03:55;;;;;;;;;;;17.40;99.90;;;;;;8415446;28;19963;-71
2023/09/28 05:07:57;;;;;;;;;;;17.30;99.90;;;;;;8409097;28;19931;-71
2023/09/28 05:12:01;;;;;;;;;;;17.20;99.90;;;;;;8409027;28;19924;-71
2023/09/28 05:16:03;;;;;;;;;;;17.10;99.90;;;;;;8415891;28;19927;-71
2023/09/28 05:20:05;;;;;;;;;;;17.10;99.90;;;;;;8403892;28;19989;-71
2023/09/28 05:24:06;;;;;;;;;;;17.10;99.90;;;;;;8415441;28;19924;-71
2023/09/28 05:28:08;;;;;;;;;;;17.10;99.90;;;;;;8411765;28;19928;-71
2023/09/28 05:32:11;;;;;;;;;;;17.00;99.90;;;;;;8415168;28;19932;-71
2023/09/28 05:36:13;;;;;;;;;;;17.00;99.90;;;;;;8401600;28;20387;-71
2023/09/28 05:40:14;;;;;;;;;;;17.00;99.90;;;;;;8407649;28;19927;-71
2023/09/28 05:44:16;;;;;;;;;;;16.90;99.90;;;;;;8415450;28;19924;-71
2023/09/28 05:48:18;;;;;;;;;;;16.90;99.90;;;;;;8414272;28;20502;-71
2023/09/28 05:52:20;;;;;;;;;;;16.90;99.90;;;;;;8410105;28;19931;-70
2023/09/28 05:56:21;;;;;;;;;;;16.80;99.90;;;;;;8417275;28;20375;-71
2023/09/28 06:00:24;;;;;;;;;;;16.80;99.90;;;;;;8406384;28;19924;-71
2023/09/28 06:04:27;;;;;;;;;;;16.80;99.90;;;;;;8417388;28;19958;-71
2023/09/28 06:08:28;;;;;;;;;;;16.80;99.90;;;;;;8414132;28;19928;-71
2023/09/28 06:12:30;;;;;;;;;;;16.80;99.90;;;;;;8414595;28;19932;-71
2023/09/28 06:16:32;;;;;;;;;;;16.90;99.90;;;;;;8423067;28;19985;-71
2023/09/28 06:20:33;;;;;;;;;;;16.80;99.90;;;;;;8420388;28;20000;-71
2023/09/28 06:24:38;;;;;;;;;;;16.80;99.90;;;;;;8419301;28;19975;-71
2023/09/28 06:28:41;;;;;;;;;;;16.80;99.90;;;;;;8395595;28;19929;-71
2023/09/28 06:32:43;;;;;;;;;;;16.80;99.90;;;;;;8390416;28;19949;-71
2023/09/28 06:36:45;;;;;;;;;;;16.90;99.90;;;;;;8400106;28;19932;-71
2023/09/28 06:40:48;;;;;;;;;;;16.90;99.90;;;;;;8412252;28;20291;-71
2023/09/28 06:44:50;;;;;;;;;;;16.90;99.90;;;;;;8405058;28;19924;-71
2023/09/28 06:48:52;;;;;;;;;;;16.90;99.90;;;;;;8415516;28;19924;-71
2023/09/28 06:52:54;;;;;;;;;;;16.90;99.90;;;;;;8406238;28;19925;-71
2023/09/28 06:56:56;;;;;;;;;;;17.00;99.90;;;;;;8403046;28;19924;-70
2023/09/28 07:00:58;;;;;;;;;;;17.00;99.90;;;;;;8416234;28;20000;-71
2023/09/28 07:05:00;;;;;;;;;;;17.10;99.90;;;;;;8419283;28;20374;-71
2023/09/28 07:09:02;;;;;;;;;;;17.10;99.90;;;;;;8408703;28;20387;-70
2023/09/28 07:13:07;;;;;;;;;;;17.20;99.90;;;;;;8424999;28;19967;-71
2023/09/28 07:17:09;;;;;;;;;;;17.30;99.90;;;;;;8413872;28;19928;-70
2023/09/28 07:21:11;;;;;;;;;;;17.30;99.90;;;;;;8398796;28;19928;-71
2023/09/28 07:25:12;;;;;;;;;;;17.40;99.90;;;;;;8410874;28;19951;-71
2023/09/28 07:29:14;;;;;;;;;;;17.40;99.90;;;;;;8405687;28;20283;-71
2023/09/28 07:33:16;;;;;;;;;;;17.50;99.90;;;;;;8398234;28;19931;-70
2023/09/28 07:37:18;;;;;;;;;;;17.60;99.90;;;;;;8406606;28;20315;-71
2023/09/28 07:41:21;;;;;;;;;;;17.60;99.90;;;;;;8417599;28;20411;-70
2023/09/28 07:45:22;;;;;;;;;;;17.70;99.90;;;;;;8405901;28;20012;-71
2023/09/28 07:49:24;;;;;;;;;;;17.70;99.90;;;;;;8418094;28;19930;-71
2023/09/28 07:53:25;;;;;;;;;;;17.80;99.90;;;;;;8393545;28;19924;-70
2023/09/28 07:57:27;;;;;;;;;;;17.80;99.90;;;;;;8421512;28;19950;-70
2023/09/28 08:01:44;;;;;;;;;;;17.80;99.90;;;;;;8395610;28;20368;-71
2023/09/28 08:05:46;;;;;;;;;;;17.80;99.90;;;;;;8418002;28;19924;-70
2023/09/28 08:19:56;;;;;;;;;;;17.90;99.90;;;;;;8420442;28;19946;-71
2023/09/28 08:29:03;;;;;;;;;;;17.90;99.90;;;;;;8425204;28;19919;-71
2023/09/28 08:33:05;;;;;;;;;;;18.00;99.90;;;;;;8419986;28;19976;-70
2023/09/28 08:37:08;;;;;;;;;;;18.10;99.90;;;;;;8405614;28;20367;-70
2023/09/28 08:41:10;;;;;;;;;;;18.20;99.90;;;;;;8424045;28;20291;-71
2023/09/28 08:45:13;;;;;;;;;;;18.20;99.90;;;;;;8413114;28;19938;-71
2023/09/28 08:49:15;;;;;;;;;;;18.20;99.90;;;;;;8413648;28;20415;-70
2023/09/28 08:53:18;;;;;;;;;;;18.20;99.90;;;;;;8396422;28;19935;-70
2023/09/28 08:57:20;;;;;;;;;;;18.20;99.90;;;;;;8412527;28;19924;-71
2023/09/28 09:01:22;;;;;;;;;;;18.30;99.90;;;;;;8392281;28;20398;-71
2023/09/28 09:05:28;;;;;;;;;;;18.40;99.90;;;;;;8417043;28;20384;-70
2023/09/28 09:09:32;;;;;;;;;;;18.40;99.90;;;;;;8397547;28;19924;-71
2023/09/28 09:13:34;;;;;;;;;;;18.40;99.90;;;;;;8416795;28;20033;-71
2023/09/28 09:27:44;;;;;;;;;;;18.50;99.90;;;;;;8412374;28;20433;-71
2023/09/28 09:31:50;;;;;;;;;;;18.60;99.90;;;;;;8420808;28;19925;-70
2023/09/28 09:35:52;;;;;;;;;;;18.60;99.90;;;;;;8414054;28;19932;-70
2023/09/28 09:40:08;;;;;;;;;;;18.50;99.90;;;;;;8414110;28;19928;-71
2023/09/28 09:44:10;;;;;;;;;;;18.50;99.90;;;;;;8406762;28;19924;-70
2023/09/28 09:48:13;;;;;;;;;;;18.50;99.90;;;;;;8401512;28;19924;-71
2023/09/28 09:52:16;;;;;;;;;;;18.60;99.90;;;;;;8414225;28;20437;-71
2023/09/28 09:56:18;;;;;;;;;;;18.70;99.90;;;;;;8427202;28;19931;-70
2023/09/28 10:00:22;;;;;;;;;;;18.70;99.90;;;;;;8413902;28;20367;-71
2023/09/28 10:04:24;;;;;;;;;;;18.70;99.90;;;;;;8404412;28;19928;-71
2023/09/28 10:13:31;;;;;;;;;;;18.70;99.90;;;;;;8404485;28;19931;-71
2023/09/28 10:18:01;;;;;;;;;;;18.80;99.90;;;;;;8409521;28;19924;-70
2023/09/28 10:22:03;;;;;;;;;;;18.80;99.90;;;;;;8420726;28;20016;-70
2023/09/28 10:26:11;;;;;;;;;;;18.90;99.90;;;;;;8405780;28;19935;-71
2023/09/28 10:30:19;;;;;;;;;;;18.90;99.90;;;;;;8413650;28;19928;-71
2023/09/28 10:34:22;;;;;;;;;;;18.90;99.90;;;;;;8401526;28;19972;-70
2023/09/28 10:48:40;;;;;;;;;;;18.90;99.90;;;;;;8411434;28;19970;-70
2023/09/28 10:52:43;;;;;;;;;;;19.00;99.90;;;;;;8419050;28;20275;-71
2023/09/28 10:56:51;;;;;;;;;;;19.00;99.90;;;;;;8419987;28;19973;-71
2023/09/28 11:00:54;;;;;;;;;;;19.00;99.90;;;;;;8413561;28;19924;-71
2023/09/28 11:04:56;;;;;;;;;;;19.00;99.90;;;;;;8408203;28;19924;-71
2023/09/28 11:09:01;;;;;;;;;;;19.00;99.90;;;;;;8401277;28;19925;-70
2023/09/28 11:13:03;;;;;;;;;;;19.10;99.90;;;;;;8414099;28;19970;-71
2023/09/28 11:17:07;;;;;;;;;;;19.10;99.90;;;;;;8412501;28;19935;-71
2023/09/28 11:21:09;;;;;;;;;;;19.10;99.90;;;;;;8414086;28;19924;-71
2023/09/28 11:25:11;;;;;;;;;;;19.10;99.90;;;;;;8385131;28;20315;-70
2023/09/28 11:29:14;;;;;;;;;;;19.10;99.90;;;;;;8374136;28;20398;-71
2023/09/28 11:33:16;;;;;;;;;;;19.10;99.90;;;;;;8385547;28;19924;-71
2023/09/28 11:37:17;;;;;;;;;;;19.10;99.90;;;;;;8390434;28;20436;-69
2023/09/28 11:41:21;;;;;;;;;;;19.10;99.90;;;;;;8390040;28;19936;-71
2023/09/28 11:45:26;;;;;;;;;;;19.10;99.90;;;;;;8388430;28;19925;-71
2023/09/28 11:49:28;;;;;;;;;;;19.10;99.90;;;;;;8387264;28;19925;-71
2023/09/28 11:53:30;;;;;;;;;;;19.20;99.90;;;;;;8383103;28;19925;-72
2023/09/28 11:57:35;;;;;;;;;;;19.30;99.90;;;;;;8400610;28;19940;-71
2023/09/28 12:01:37;;;;;;;;;;;19.20;99.90;;;;;;8382728;28;20532;-71
2023/09/28 12:05:40;;;;;;;;;;;19.30;99.90;;;;;;8402135;28;19975;-71
2023/09/28 12:09:42;;;;;;;;;;;19.30;99.90;;;;;;8398924;28;19935;-72
2023/09/28 12:13:55;;;;;;;;;;;19.30;99.90;;;;;;8391520;28;20023;-71
2023/09/28 12:17:56;;;;;;;;;;;19.30;99.90;;;;;;8387677;28;20380;-72
2023/09/28 12:21:58;;;;;;;;;;;19.30;99.90;;;;;;8398959;28;20286;-71
2023/09/28 12:26:01;;;;;;;;;;;19.40;99.90;;;;;;8389164;28;19970;-71
2023/09/28 12:30:04;;;;;;;;;;;19.60;99.90;;;;;;8407108;28;19928;-71
2023/09/28 12:34:06;;;;;;;;;;;19.70;99.90;;;;;;8392237;28;20347;-71
2023/09/28 12:38:08;;;;;;;;;;;19.80;99.90;;;;;;8399706;28;19935;-72
2023/09/28 12:42:13;;;;;;;;;;;19.70;99.90;;;;;;8394630;28;19932;-71
2023/09/28 12:46:14;;;;;;;;;;;19.80;99.90;;;;;;8402247;28;19970;-71
2023/09/28 12:50:16;;;;;;;;;;;19.80;99.90;;;;;;8406313;28;19970;-71
2023/09/28 12:54:18;;;;;;;;;;;19.80;99.90;;;;;;8401978;28;20023;-72
2023/09/28 12:58:20;;;;;;;;;;;19.80;99.90;;;;;;8403933;28;19928;-72
2023/09/28 13:02:24;;;;;;;;;;;19.80;99.90;;;;;;8399808;28;20500;-72
2023/09/28 13:06:26;;;;;;;;;;;19.80;99.90;;;;;;8391539;28;19981;-71
2023/09/28 13:10:28;;;;;;;;;;;19.90;99.90;;;;;;8398405;28;19993;-72
2023/09/28 13:14:31;;;;;;;;;;;19.90;99.90;;;;;;8395818;28;19928;-71
2023/09/28 13:18:33;;;;;;;;;;;19.90;99.90;;;;;;8403385;28;19932;-71
2023/09/28 13:22:36;;;;;;;;;;;19.80;99.90;;;;;;8392973;28;19931;-72
2023/09/28 13:26:38;;;;;;;;;;;19.80;99.90;;;;;;8391987;28;20349;-72
2023/09/28 13:30:40;;;;;;;;;;;19.80;99.90;;;;;;8378668;28;19932;-72
2023/09/28 13:34:43;;;;;;;;;;;19.70;99.90;;;;;;8381812;28;20367;-71
2023/09/28 13:38:51;;;;;;;;;;;19.70;99.90;;;;;;8398917;28;19935;-72
2023/09/28 13:42:55;;;;;;;;;;;19.60;99.90;;;;;;8383596;28;23135;-71
2023/09/28 13:46:56;;;;;;;;;;;19.60;99.90;;;;;;8396043;28;19927;-73
2023/09/28 13:50:58;;;;;;;;;;;19.50;99.90;;;;;;8395153;28;19932;-71
2023/09/28 13:55:00;;;;;;;;;;;19.50;99.90;;;;;;8395867;28;19951;-72
2023/09/28 13:59:05;;;;;;;;;;;19.50;99.90;;;;;;8379374;28;19928;-71
2023/09/28 14:18:17;;;;;;;;;;;19.50;99.90;;;;;;8397069;28;19969;-72
2023/09/28 14:22:19;;;;;;;;;;;19.60;99.90;;;;;;8373994;28;20299;-72
2023/09/28 14:26:21;;;;;;;;;;;19.60;99.90;;;;;;8393715;28;19927;-71
2023/09/28 14:30:23;;;;;;;;;;;19.60;99.90;;;;;;8392946;28;19930;-72
2023/09/28 14:39:28;;;;;;;;;;;19.70;99.90;;;;;;8394663;28;19957;-71
2023/09/28 14:43:30;;;;;;;;;;;19.60;99.90;;;;;;8390922;28;19935;-72
2023/09/28 14:47:32;;;;;;;;;;;19.70;99.90;;;;;;8375449;28;19924;-71
2023/09/28 14:51:34;;;;;;;;;;;19.60;99.90;;;;;;8386065;28;19932;-71
2023/09/28 14:55:37;;;;;;;;;;;19.60;99.90;;;;;;8376996;28;19928;-72
2023/09/28 14:59:39;;;;;;;;;;;19.50;99.90;;;;;;8375317;28;20331;-71
2023/09/28 15:03:41;;;;;;;;;;;19.50;99.90;;;;;;8394787;28;19924;-72
2023/09/28 15:07:43;;;;;;;;;;;19.60;99.90;;;;;;8389813;28;19990;-71
2023/09/28 15:11:47;;;;;;;;;;;19.60;99.90;;;;;;8391028;28;20372;-71
2023/09/28 15:15:49;;;;;;;;;;;19.60;99.90;;;;;;8385476;28;19932;-71
2023/09/28 15:19:50;;;;;;;;;;;19.60;99.90;;;;;;8395960;28;19982;-71
2023/09/28 15:23:52;;;;;;;;;;;19.60;99.90;;;;;;8389253;28;19928;-71
2023/09/28 15:27:54;;;;;;;;;;;19.50;99.90;;;;;;8381187;28;19938;-71
2023/09/28 15:31:56;;;;;;;;;;;19.50;99.90;;;;;;8394712;28;20101;-71
2023/09/28 15:35:58;;;;;;;;;;;19.50;99.90;;;;;;8402312;28;19924;-71
2023/09/28 15:40:03;;;;;;;;;;;19.50;99.90;;;;;;8402562;28;19978;-71
2023/09/28 15:44:05;;;;;;;;;;;19.60;99.90;;;;;;8384511;28;19928;-71
2023/09/28 15:48:07;;;;;;;;;;;19.60;99.90;;;;;;8399436;28;19932;-71
2023/09/28 15:52:08;;;;;;;;;;;19.70;99.90;;;;;;8399317;28;20325;-71
2023/09/28 15:56:10;;;;;;;;;;;19.70;99.90;;;;;;8393772;28;20375;-71
2023/09/28 16:00:12;;;;;;;;;;;19.80;99.90;;;;;;8388871;28;19967;-71
2023/09/28 16:04:36;;;;;;;;;;;19.80;99.90;;;;;;8397023;28;19930;-71
2023/09/28 16:24:02;;;;;;;;;;;19.90;99.90;;;;;;8397287;28;19999;-71
2023/09/28 16:28:04;;;;;;;;;;;19.80;99.90;;;;;;8395697;28;19929;-71
2023/09/28 16:52:14;;;;;;;;;;;19.50;99.90;;;;;;8375577;28;19927;-71
2023/09/28 16:56:16;;;;;;;;;;;19.40;99.90;;;;;;8400312;28;19931;-70
2023/09/28 17:00:18;;;;;;;;;;;19.40;99.90;;;;;;8394816;28;19929;-71
2023/09/28 17:09:22;;;;;;;;;;;19.30;99.90;;;;;;8391077;28;19919;-71
2023/09/28 17:13:24;;;;;;;;;;;19.20;99.90;;;;;;8391768;28;19935;-71
2023/09/28 17:17:26;;;;;;;;;;;19.10;99.90;;;;;;8396259;28;20279;-71
2023/09/28 17:21:28;;;;;;;;;;;19.00;99.90;;;;;;8396425;28;20358;-71
2023/09/28 17:25:29;;;;;;;;;;;19.00;99.90;;;;;;8407672;28;19928;-70
2023/09/28 17:29:31;;;;;;;;;;;18.90;99.90;;;;;;8393561;28;19924;-71
2023/09/28 17:33:33;;;;;;;;;;;18.80;99.90;;;;;;8391036;28;19933;-70
2023/09/28 17:37:34;;;;;;;;;;;18.70;99.90;;;;;;8390859;28;19928;-71
2023/09/28 17:41:36;;;;;;;;;;;18.70;99.90;;;;;;8390986;28;19927;-71
2023/09/28 17:45:38;;;;;;;;;;;18.60;99.90;;;;;;8395465;28;20345;-71
2023/09/28 17:49:39;;;;;;;;;;;18.50;99.90;;;;;;8392556;28;19985;-71
2023/09/28 17:53:41;;;;;;;;;;;18.50;99.90;;;;;;8378543;28;19935;-71
2023/09/28 17:57:43;;;;;;;;;;;18.40;99.90;;;;;;8386255;28;20230;-71
2023/09/28 18:01:46;;;;;;;;;;;18.30;99.90;;;;;;8394959;28;20299;-71
2023/09/28 18:05:48;;;;;;;;;;;18.20;99.90;;;;;;8407453;28;20278;-71
2023/09/28 18:09:49;;;;;;;;;;;18.10;99.90;;;;;;8377379;28;20042;-71
2023/09/28 18:13:51;;;;;;;;;;;18.10;99.90;;;;;;8396008;28;19935;-70
2023/09/28 18:17:56;;;;;;;;;;;18.00;99.90;;;;;;8370004;28;19959;-71
2023/09/28 18:21:58;;;;;;;;;;;17.90;99.90;;;;;;8392027;28;19944;-71
2023/09/28 18:26:00;;;;;;;;;;;17.90;99.90;;;;;;8388085;28;19981;-71
2023/09/28 18:30:04;;;;;;;;;;;17.80;99.90;;;;;;8390917;28;19978;-70
2023/09/28 18:34:05;;;;;;;;;;;17.70;99.90;;;;;;8395612;28;20329;-70
2023/09/28 18:38:07;;;;;;;;;;;17.60;99.90;;;;;;8394478;28;19924;-71
2023/09/28 18:42:09;;;;;;;;;;;17.60;99.90;;;;;;8381826;28;19928;-70
2023/09/28 18:46:14;;;;;;;;;;;17.50;99.90;;;;;;8378310;28;20437;-70
2023/09/28 18:50:17;;;;;;;;;;;17.50;99.90;;;;;;8388145;28;19932;-71
2023/09/28 18:54:18;;;;;;;;;;;17.50;99.90;;;;;;8394117;28;19942;-71
2023/09/28 18:58:20;;;;;;;;;;;17.50;99.90;;;;;;8385805;28;19990;-71
2023/09/28 19:02:22;;;;;;;;;;;17.50;99.90;;;;;;8386728;28;19989;-70
2023/09/28 19:06:24;;;;;;;;;;;17.40;99.90;;;;;;8387186;28;19939;-71
2023/09/28 19:10:26;;;;;;;;;;;17.40;99.90;;;;;;8383107;28;19928;-71
2023/09/28 19:14:27;;;;;;;;;;;17.40;99.90;;;;;;8405314;28;19924;-71
2023/09/28 19:18:29;;;;;;;;;;;17.40;99.90;;;;;;8388855;28;19978;-71
2023/09/28 19:22:34;;;;;;;;;;;17.30;99.90;;;;;;8379620;28;20016;-71
2023/09/28 19:26:36;;;;;;;;;;;17.30;99.90;;;;;;8389402;28;19988;-70
2023/09/28 19:30:37;;;;;;;;;;;17.30;99.90;;;;;;8381426;28;19986;-71
2023/09/28 19:34:39;;;;;;;;;;;17.30;99.90;;;;;;8391097;28;20341;-71
2023/09/28 19:38:41;;;;;;;;;;;17.40;99.90;;;;;;8396736;28;19941;-71
2023/09/28 19:52:43;;;;;;;;;;;17.40;99.90;;;;;;8389569;28;20472;-71
2023/09/28 19:56:44;;;;;;;;;;;17.40;99.90;;;;;;8390981;28;20398;-71
2023/09/28 20:00:46;;;;;;;;;;;17.40;99.90;;;;;;8384407;28;20651;-71
2023/09/28 20:04:48;;;;;;;;;;;17.40;99.90;;;;;;8384851;28;20732;-71
2023/09/28 20:08:50;;;;;;;;;;;17.40;99.90;;;;;;8401133;28;20371;-71
2023/09/28 20:12:54;;;;;;;;;;;17.40;99.90;;;;;;8405383;28;20299;-72
2023/09/28 20:16:56;;;;;;;;;;;17.40;99.90;;;;;;8409168;28;20393;-71
2023/09/28 20:21:01;;;;;;;;;;;17.40;99.90;;;;;;8403699;28;19928;-70
2023/09/28 20:25:04;;;;;;;;;;;17.40;99.90;;;;;;8409186;28;19928;-71
2023/09/28 20:29:06;;;;;;;;;;;17.50;99.90;;;;;;8390724;28;19928;-70
2023/09/28 20:33:07;;;;;;;;;;;17.50;99.90;;;;;;8395346;28;19928;-71
2023/09/28 20:37:09;;;;;;;;;;;17.60;99.90;;;;;;8392200;28;19934;-71
2023/09/28 20:41:11;;;;;;;;;;;17.60;99.90;;;;;;8393289;28;19928;-71
2023/09/28 20:55:35;;;;;;;;;;;17.50;99.90;;;;;;8368022;28;19939;-71
2023/09/28 20:59:37;;;;;;;;;;;17.50;99.90;;;;;;8326956;28;20304;-71
2023/09/28 21:03:39;;;;;;;;;;;17.40;99.90;;;;;;8377305;28;19924;-71
2023/09/28 21:07:40;;;;;;;;;;;17.40;99.90;;;;;;8355103;28;19929;-71
2023/09/28 21:11:48;;;;;;;;;;;17.40;99.90;;;;;;8343004;28;19933;-70
2023/09/28 21:15:49;;;;;;;;;;;17.40;99.90;;;;;;8355631;28;19925;-71
2023/09/28 21:19:51;;;;;;;;;;;17.30;99.90;;;;;;8347809;28;19929;-70
2023/09/28 21:24:05;;;;;;;;;;;17.30;99.90;;;;;;8358195;28;20007;-71
2023/09/28 21:28:07;;;;;;;;;;;17.30;99.90;;;;;;8354577;28;19978;-71
2023/09/28 21:32:09;;;;;;;;;;;17.30;99.90;;;;;;8353057;28;19925;-71
2023/09/28 21:36:11;;;;;;;;;;;17.30;99.90;;;;;;8357467;28;19924;-71
2023/09/28 21:40:12;;;;;;;;;;;17.30;99.90;;;;;;8349396;28;19959;-70
2023/09/28 21:44:14;;;;;;;;;;;17.30;99.90;;;;;;8350925;28;19940;-70
2023/09/28 21:48:16;;;;;;;;;;;17.30;99.90;;;;;;8344811;28;19925;-70
2023/09/28 21:52:17;;;;;;;;;;;17.30;99.90;;;;;;8351931;28;19960;-71
2023/09/28 21:56:19;;;;;;;;;;;17.30;99.90;;;;;;8360737;28;19983;-71
2023/09/28 22:00:54;;;;;;;;;;;17.30;99.90;;;;;;8421669;28;19934;-71
2023/09/28 22:04:49;;;;;;;;;;;17.40;99.90;;;;;;8402270;28;20387;-71
2023/09/28 22:08:50;;;;;;;;;;;17.40;99.90;;;;;;8409122;28;19931;-71
2023/09/28 22:12:52;;;;;;;;;;;17.40;99.90;;;;;;8400257;28;19931;-71
2023/09/28 22:16:54;;;;;;;;;;;17.40;99.90;;;;;;8420925;28;19928;-71
2023/09/28 22:20:58;;;;;;;;;;;17.30;99.90;;;;;;8403537;28;21369;-71
2023/09/28 22:25:00;;;;;;;;;;;17.30;99.90;;;;;;8420912;28;20400;-70
2023/09/28 22:29:01;;;;;;;;;;;17.30;99.90;;;;;;8411277;28;19931;-71
2023/09/28 22:33:04;;;;;;;;;;;17.30;99.90;;;;;;8415049;28;19950;-70
2023/09/28 22:37:06;;;;;;;;;;;17.20;99.90;;;;;;8415063;28;19938;-70
2023/09/28 22:41:08;;;;;;;;;;;17.20;99.90;;;;;;8411784;28;19924;-71
2023/09/28 22:45:10;;;;;;;;;;;17.20;99.90;;;;;;8413946;28;19965;-71
2023/09/28 22:49:12;;;;;;;;;;;17.30;99.90;;;;;;8393423;28;19925;-71
2023/09/28 22:53:13;;;;;;;;;;;17.30;99.90;;;;;;8394478;28;19994;-70
2023/09/28 22:57:15;;;;;;;;;;;17.30;99.90;;;;;;8410594;28;19924;-71
2023/09/28 23:01:17;;;;;;;;;;;17.30;99.90;;;;;;8413157;28;19924;-71
2023/09/28 23:05:18;;;;;;;;;;;17.40;99.90;;;;;;8417437;28;20015;-71
2023/09/28 23:09:21;;;;;;;;;;;17.40;99.90;;;;;;8407744;28;19951;-71
2023/09/28 23:13:22;;;;;;;;;;;17.40;99.90;;;;;;8414332;28;20264;-71
2023/09/28 23:17:24;;;;;;;;;;;17.40;99.90;;;;;;8413054;28;20283;-71
2023/09/28 23:21:27;;;;;;;;;;;17.50;99.90;;;;;;8407329;28;19960;-71
2023/09/28 23:25:28;;;;;;;;;;;17.50;99.90;;;;;;8411557;28;19981;-70
2023/09/28 23:29:30;;;;;;;;;;;17.50;99.90;;;;;;8407571;28;19924;-70
2023/09/28 23:33:32;;;;;;;;;;;17.50;99.90;;;;;;8394970;28;19939;-70
2023/09/28 23:37:33;;;;;;;;;;;17.50;99.90;;;;;;8416531;28;19924;-71
2023/09/28 23:41:35;;;;;;;;;;;17.50;99.90;;;;;;8390435;28;19936;-70
2023/09/28 23:45:37;;;;;;;;;;;17.50;99.90;;;;;;8398727;28;19929;-71
2023/09/28 23:49:39;;;;;;;;;;;17.50;99.90;;;;;;8414329;28;19963;-70
2023/09/28 23:53:43;;;;;;;;;;;17.50;99.90;;;;;;8404797;28;20268;-70
2023/09/28 23:57:45;;;;;;;;;;;17.50;99.90;;;;;;8414138;28;19924;-70
